Terminal Aerodrome Forecast
Issued by NWS

Home | Current Version | Previous Version | Text Only | Print | Product List | Glossary Off
Versions: 1 2 3 4 5 6 7 8 9 10 11 12 13 14 15 16 17

000
FTUS43 KMPX 142300
TAFRWF
TAF
KRWF 142335Z 1500/1524 17007KT 5SM BR OVC008
      TEMPO 1500/1502 6SM BR OVC011
     FM150400 24005KT 2SM BR OVC005
     FM150900 36004KT 1SM -RA BR OVC003
     FM151500 36012G18KT 3/4SM RA BR OVC003
      TEMPO 1518/1522 -FZRAPLSN
     FM152200 35018G30KT 3/4SM -SN BR OVC003=

USA.gov is the U.S. government's official web portal to all federal, state and local government web resources and services.